Private Wetterstation Sandau
Wetterdaten: Dienstag, 10.04.2012
Datum Zeit Temp. A. Feuchte A. Luftdruck Regen Wind Richtung Richtung Taupunkt Windchill
10.04.2012 00:01 6,9 C 82 % 1001,5 hPa 0,0 l/m 7,2 km/h (2 Bft) S-SO 157 4,0 C 5,6 C
10.04.2012 00:06 6,9 C 82 % 1001,6 hPa 0,0 l/m 8,3 km/h (2 Bft) S-SO 157 4,0 C 5,3 C
10.04.2012 00:11 6,9 C 82 % 1001,6 hPa 0,0 l/m 19,4 km/h (3 Bft) S-SO 157 4,0 C 3,5 C
10.04.2012 00:16 6,9 C 82 % 1001,6 hPa 0,0 l/m 4,7 km/h (1 Bft) S-SO 157 4,0 C 6,3 C
10.04.2012 00:21 6,9 C 82 % 1001,6 hPa 0,0 l/m 13,3 km/h (3 Bft) S-SW 202 4,0 C 4,3 C
10.04.2012 00:26 6,9 C 82 % 1001,5 hPa 0,0 l/m 10,1 km/h (2 Bft) S 180 4,0 C 4,9 C
10.04.2012 00:31 6,9 C 82 % 1001,6 hPa 0,0 l/m 14,4 km/h (3 Bft) S-SO 157 4,0 C 4,2 C
10.04.2012 00:36 6,9 C 82 % 1001,6 hPa 0,0 l/m 7,6 km/h (2 Bft) S-SO 157 4,0 C 5,5 C
10.04.2012 00:41 6,9 C 82 % 1001,6 hPa 0,0 l/m 13,7 km/h (3 Bft) S-SW 202 4,0 C 4,3 C
10.04.2012 00:46 6,9 C 82 % 1001,6 hPa 0,0 l/m 11,2 km/h (2 Bft) S-SW 202 4,0 C 4,7 C
10.04.2012 00:51 6,9 C 83 % 1001,3 hPa 0,0 l/m 6,1 km/h (2 Bft) S-SW 202 4,2 C 5,9 C
10.04.2012 00:56 6,9 C 83 % 1001,3 hPa 0,0 l/m 21,6 km/h (4 Bft) S-SO 157 4,2 C 3,3 C
10.04.2012 01:01 6,9 C 83 % 1001,3 hPa 0,0 l/m 8,3 km/h (2 Bft) S-SW 202 4,2 C 5,3 C
10.04.2012 01:06 6,9 C 83 % 1001,2 hPa 0,0 l/m 10,1 km/h (2 Bft) S 180 4,2 C 4,9 C
10.04.2012 01:11 6,9 C 83 % 1001,1 hPa 0,0 l/m 13,3 km/h (3 Bft) S-SW 202 4,2 C 4,3 C
10.04.2012 01:16 6,8 C 83 % 1001,2 hPa 0,0 l/m 16,9 km/h (3 Bft) S-SO 157 4,1 C 3,7 C
10.04.2012 01:21 6,8 C 83 % 1001,2 hPa 0,5 l/m 8,3 km/h (2 Bft) S 180 4,1 C 5,2 C
10.04.2012 01:26 6,8 C 83 % 1000,9 hPa 0,0 l/m 11,9 km/h (2 Bft) S-SW 202 4,1 C 4,5 C
10.04.2012 01:31 6,8 C 83 % 1001,1 hPa 0,0 l/m 20,2 km/h (4 Bft) S 180 4,1 C 3,3 C
10.04.2012 01:36 6,8 C 83 % 1001,0 hPa 0,0 l/m 3,6 km/h (1 Bft) SW 225 4,1 C 6,8 C
10.04.2012 01:41 6,8 C 83 % 1001,0 hPa 0,0 l/m 10,8 km/h (2 Bft) S-SO 157 4,1 C 4,7 C
10.04.2012 01:46 6,8 C 83 % 1001,0 hPa 0,0 l/m 16,6 km/h (3 Bft) S-SO 157 4,1 C 3,7 C
10.04.2012 01:51 6,8 C 83 % 1001,0 hPa 0,0 l/m 4,3 km/h (1 Bft) S 180 4,1 C 6,8 C
10.04.2012 01:56 6,8 C 83 % 1001,0 hPa 0,0 l/m 6,1 km/h (2 Bft) S 180 4,1 C 5,8 C
10.04.2012 02:01 6,8 C 83 % 1000,8 hPa 0,0 l/m 6,1 km/h (2 Bft) S 180 4,1 C 5,8 C
10.04.2012 02:06 6,9 C 83 % 1000,8 hPa 0,0 l/m 14,8 km/h (3 Bft) S-SO 157 4,2 C 4,1 C
10.04.2012 02:11 6,9 C 83 % 1000,8 hPa 0,0 l/m 13,0 km/h (3 Bft) S 180 4,2 C 4,4 C
10.04.2012 02:16 6,9 C 83 % 1000,8 hPa 0,0 l/m 12,2 km/h (2 Bft) S-SO 157 4,2 C 4,5 C
10.04.2012 02:21 6,9 C 83 % 1000,8 hPa 0,0 l/m 9,7 km/h (2 Bft) S-SO 157 4,2 C 5,0 C
10.04.2012 02:26 7,0 C 83 % 1000,6 hPa 0,0 l/m 5,0 km/h (1 Bft) S-SO 157 4,3 C 6,4 C
10.04.2012 02:31 7,0 C 83 % 1000,7 hPa 0,0 l/m 15,8 km/h (3 Bft) S-SO 157 4,3 C 4,1 C
10.04.2012 02:36 7,0 C 83 % 1000,7 hPa 0,0 l/m 16,9 km/h (3 Bft) SO 135 4,3 C 4,0 C
10.04.2012 02:41 7,1 C 83 % 1000,7 hPa 0,0 l/m 5,8 km/h (2 Bft) SW 225 4,4 C 6,2 C
10.04.2012 02:46 7,1 C 83 % 1000,4 hPa 0,0 l/m 6,1 km/h (2 Bft) S-SW 202 4,4 C 6,1 C
10.04.2012 02:51 7,1 C 83 % 1000,4 hPa 0,0 l/m 14,0 km/h (3 Bft) S 180 4,4 C 4,5 C
10.04.2012 02:56 7,1 C 83 % 1000,5 hPa 0,0 l/m 7,6 km/h (2 Bft) O-SO 112 4,4 C 5,7 C
10.04.2012 03:01 7,1 C 83 % 1000,5 hPa 0,0 l/m 6,1 km/h (2 Bft) S-SO 157 4,4 C 6,1 C
10.04.2012 03:06 7,1 C 83 % 1000,4 hPa 0,0 l/m 4,3 km/h (1 Bft) SO 135 4,4 C 7,1 C
10.04.2012 03:11 7,1 C 83 % 1000,3 hPa 0,0 l/m 13,7 km/h (3 Bft) S-SW 202 4,4 C 4,5 C
10.04.2012 03:16 7,1 C 83 % 1000,3 hPa 0,0 l/m 7,9 km/h (2 Bft) S-SW 202 4,4 C 5,6 C
10.04.2012 03:21 7,2 C 83 % 1000,3 hPa 0,0 l/m 13,3 km/h (3 Bft) S 180 4,5 C 4,7 C
10.04.2012 03:26 7,2 C 83 % 1000,2 hPa 0,0 l/m 10,8 km/h (2 Bft) S 180 4,5 C 5,1 C
10.04.2012 03:31 7,2 C 83 % 1000,2 hPa 0,0 l/m 8,3 km/h (2 Bft) S-SO 157 4,5 C 5,6 C
10.04.2012 03:36 7,2 C 83 % 1000,2 hPa 0,0 l/m 6,5 km/h (2 Bft) SW 225 4,5 C 6,1 C
10.04.2012 03:41 7,2 C 83 % 1000,2 hPa 0,0 l/m 11,9 km/h (2 Bft) S-SO 157 4,5 C 4,9 C
10.04.2012 03:46 7,2 C 83 % 999,9 hPa 0,0 l/m 18,7 km/h (3 Bft) S-SO 157 4,5 C 4,0 C
10.04.2012 03:51 7,3 C 83 % 1000,0 hPa 0,0 l/m 7,2 km/h (2 Bft) S-SW 202 4,6 C 6,0 C
10.04.2012 03:56 7,3 C 83 % 1000,0 hPa 0,0 l/m 10,8 km/h (2 Bft) S-SO 157 4,6 C 5,3 C
10.04.2012 04:01 7,3 C 83 % 1000,0 hPa 0,0 l/m 4,3 km/h (1 Bft) SW 225 4,6 C 7,3 C
10.04.2012 04:06 7,3 C 83 % 1000,1 hPa 0,0 l/m 5,8 km/h (2 Bft) S-SO 157 4,6 C 6,4 C
10.04.2012 04:11 7,3 C 83 % 1000,0 hPa 0,0 l/m 10,1 km/h (2 Bft) S 180 4,6 C 5,4 C
10.04.2012 04:16 7,4 C 83 % 999,8 hPa 0,0 l/m 9,0 km/h (2 Bft) S-SO 157 4,7 C 5,7 C
10.04.2012 04:21 7,4 C 83 % 999,7 hPa 0,0 l/m 16,6 km/h (3 Bft) S 180 4,7 C 4,5 C
10.04.2012 04:26 7,4 C 83 % 999,7 hPa 0,0 l/m 8,3 km/h (2 Bft) S-SO 157 4,7 C 5,9 C
10.04.2012 04:31 7,4 C 83 % 999,7 hPa 0,0 l/m 14,0 km/h (3 Bft) S-SW 202 4,7 C 4,9 C
10.04.2012 04:36 7,5 C 83 % 999,7 hPa 0,0 l/m 4,3 km/h (1 Bft) SO 135 4,8 C 7,5 C
10.04.2012 04:41 7,5 C 83 % 999,7 hPa 0,0 l/m 7,6 km/h (2 Bft) SW 225 4,8 C 6,2 C
10.04.2012 04:46 7,5 C 83 % 999,7 hPa 0,0 l/m 6,5 km/h (2 Bft) S-SW 202 4,8 C 6,5 C
10.04.2012 04:51 7,6 C 83 % 999,5 hPa 0,0 l/m 9,0 km/h (2 Bft) S 180 4,9 C 6,0 C
10.04.2012 04:56 7,6 C 83 % 999,6 hPa 0,0 l/m 9,4 km/h (2 Bft) S 180 4,9 C 5,9 C
10.04.2012 05:01 7,6 C 83 % 999,4 hPa 0,0 l/m 8,3 km/h (2 Bft) S-SO 157 4,9 C 6,1 C
10.04.2012 05:06 7,6 C 83 % 999,4 hPa 0,0 l/m 7,9 km/h (2 Bft) SO 135 4,9 C 6,2 C
10.04.2012 05:11 7,6 C 83 % 999,4 hPa 0,0 l/m 10,1 km/h (2 Bft) SW 225 4,9 C 5,7 C
10.04.2012 05:16 7,6 C 83 % 999,2 hPa 0,0 l/m 14,8 km/h (3 Bft) S 180 4,9 C 5,0 C
10.04.2012 05:21 7,6 C 83 % 999,2 hPa 0,0 l/m 10,1 km/h (2 Bft) S-SW 202 4,9 C 5,7 C
10.04.2012 05:26 7,6 C 83 % 999,2 hPa 0,0 l/m 19,8 km/h (3 Bft) SW 225 4,9 C 4,4 C
10.04.2012 05:31 7,7 C 83 % 999,3 hPa 0,0 l/m 5,8 km/h (2 Bft) S 180 5,0 C 6,9 C
10.04.2012 05:36 7,8 C 83 % 999,2 hPa 0,0 l/m 8,6 km/h (2 Bft) S-SO 157 5,1 C 6,3 C
10.04.2012 05:41 7,8 C 83 % 999,1 hPa 0,0 l/m 17,3 km/h (3 Bft) S 180 5,1 C 4,9 C
10.04.2012 05:46 7,8 C 83 % 999,2 hPa 0,0 l/m 8,6 km/h (2 Bft) W-SW 247 5,1 C 6,3 C
10.04.2012 05:51 7,8 C 83 % 999,2 hPa 0,0 l/m 12,2 km/h (2 Bft) S-SO 157 5,1 C 5,6 C
10.04.2012 05:56 7,8 C 83 % 999,0 hPa 0,0 l/m 19,8 km/h (3 Bft) S-SO 157 5,1 C 4,6 C
10.04.2012 06:01 7,8 C 83 % 998,8 hPa 0,0 l/m 7,2 km/h (2 Bft) S-SW 202 5,1 C 6,6 C
10.04.2012 06:06 7,8 C 83 % 998,8 hPa 0,0 l/m 11,2 km/h (2 Bft) SW 225 5,1 C 5,8 C
10.04.2012 06:11 7,9 C 83 % 998,9 hPa 0,0 l/m 10,1 km/h (2 Bft) S-SW 202 5,2 C 6,1 C
10.04.2012 06:16 7,9 C 83 % 998,9 hPa 0,0 l/m 7,6 km/h (2 Bft) SO 135 5,2 C 6,6 C
10.04.2012 06:21 7,9 C 83 % 998,7 hPa 0,0 l/m 9,7 km/h (2 Bft) S 180 5,2 C 6,2 C
10.04.2012 06:26 7,9 C 83 % 998,7 hPa 0,0 l/m 7,2 km/h (2 Bft) S-SO 157 5,2 C 6,7 C
10.04.2012 06:31 7,9 C 83 % 998,6 hPa 0,0 l/m 5,8 km/h (2 Bft) S 180 5,2 C 7,1 C
10.04.2012 06:36 8,0 C 83 % 998,7 hPa 0,0 l/m 16,6 km/h (3 Bft) S-SW 202 5,3 C 5,2 C
10.04.2012 06:41 8,1 C 83 % 998,7 hPa 0,0 l/m 8,3 km/h (2 Bft) SW 225 5,4 C 6,7 C
10.04.2012 06:46 8,1 C 83 % 998,7 hPa 0,0 l/m 14,4 km/h (3 Bft) S-SO 157 5,4 C 5,7 C
10.04.2012 06:51 8,1 C 83 % 998,7 hPa 0,0 l/m 13,0 km/h (3 Bft) S-SO 157 5,4 C 5,9 C
10.04.2012 06:56 8,1 C 83 % 998,7 hPa 0,0 l/m 6,1 km/h (2 Bft) S 180 5,4 C 7,3 C
10.04.2012 07:01 8,2 C 83 % 998,7 hPa 0,0 l/m 18,4 km/h (3 Bft) S-SO 157 5,5 C 5,3 C
10.04.2012 07:06 8,3 C 83 % 998,7 hPa 0,0 l/m 19,1 km/h (3 Bft) S 180 5,6 C 5,3 C
10.04.2012 07:11 8,3 C 83 % 998,8 hPa 0,0 l/m 9,4 km/h (2 Bft) S-SW 202 5,6 C 6,7 C
10.04.2012 07:16 8,3 C 83 % 998,7 hPa 0,0 l/m 8,6 km/h (2 Bft) S-SO 157 5,6 C 6,9 C
10.04.2012 07:21 8,4 C 83 % 998,7 hPa 0,0 l/m 11,9 km/h (2 Bft) S-SW 202 5,7 C 6,4 C
10.04.2012 07:26 8,4 C 83 % 998,7 hPa 0,0 l/m 19,1 km/h (3 Bft) S-SO 157 5,7 C 5,5 C
10.04.2012 07:31 8,4 C 83 % 998,8 hPa 0,0 l/m 10,4 km/h (2 Bft) SW 225 5,7 C 6,6 C
10.04.2012 07:36 8,5 C 83 % 998,6 hPa 0,0 l/m 16,2 km/h (3 Bft) S 180 5,8 C 5,9 C
10.04.2012 07:41 8,6 C 82 % 998,7 hPa 0,0 l/m 12,6 km/h (3 Bft) S 180 5,7 C 6,5 C
10.04.2012 07:46 8,6 C 82 % 998,8 hPa 0,0 l/m 15,8 km/h (3 Bft) S 180 5,7 C 6,1 C
10.04.2012 07:51 8,6 C 82 % 998,6 hPa 0,0 l/m 8,6 km/h (2 Bft) S-SW 202 5,7 C 7,2 C
10.04.2012 07:56 8,7 C 82 % 998,7 hPa 0,0 l/m 16,6 km/h (3 Bft) S-SW 202 5,8 C 6,1 C
10.04.2012 08:01 8,7 C 82 % 998,8 hPa 0,0 l/m 12,2 km/h (2 Bft) S 180 5,8 C 6,7 C
10.04.2012 08:06 8,8 C 82 % 998,7 hPa 0,0 l/m 14,0 km/h (3 Bft) SO 135 5,9 C 6,6 C
10.04.2012 08:11 8,8 C 82 % 998,7 hPa 0,0 l/m 20,5 km/h (4 Bft) S-SO 157 5,9 C 5,8 C
10.04.2012 08:16 8,9 C 82 % 998,6 hPa 0,0 l/m 12,2 km/h (2 Bft) S-SO 157 6,0 C 7,0 C
10.04.2012 08:21 8,9 C 82 % 998,7 hPa 0,0 l/m 10,8 km/h (2 Bft) S-SW 202 6,0 C 7,2 C
10.04.2012 08:26 9,1 C 82 % 998,5 hPa 0,0 l/m 24,1 km/h (4 Bft) S-SO 157 6,2 C 5,9 C
10.04.2012 08:31 9,2 C 82 % 998,5 hPa 0,0 l/m 14,8 km/h (3 Bft) S 180 6,3 C 7,0 C
10.04.2012 08:36 9,3 C 81 % 998,6 hPa 0,0 l/m 23,0 km/h (4 Bft) S-SO 157 6,2 C 6,2 C
10.04.2012 08:41 9,3 C 81 % 998,3 hPa 0,0 l/m 11,2 km/h (2 Bft) S 180 6,2 C 7,6 C
10.04.2012 08:46 9,4 C 81 % 998,5 hPa 0,0 l/m 22,7 km/h (4 Bft) S-SW 202 6,3 C 6,4 C
10.04.2012 08:51 9,5 C 81 % 998,4 hPa 0,0 l/m 10,8 km/h (2 Bft) SO 135 6,4 C 7,9 C
10.04.2012 08:56 9,6 C 81 % 998,6 hPa 0,0 l/m 9,7 km/h (2 Bft) SO 135 6,5 C 8,2 C
10.04.2012 09:01 9,7 C 81 % 998,6 hPa 0,0 l/m 13,0 km/h (3 Bft) S-SO 157 6,6 C 7,8 C
10.04.2012 09:06 9,8 C 81 % 998,3 hPa 0,0 l/m 15,1 km/h (3 Bft) W-SW 247 6,7 C 7,7 C
10.04.2012 09:11 9,9 C 81 % 998,3 hPa 0,0 l/m 18,4 km/h (3 Bft) S-SO 157 6,8 C 7,4 C
10.04.2012 09:16 10,1 C 81 % 998,4 hPa 0,0 l/m 21,6 km/h (4 Bft) S-SO 157 7,0 C 10,1 C
10.04.2012 09:21 10,2 C 80 % 998,4 hPa 0,0 l/m 12,6 km/h (3 Bft) SW 225 6,9 C 10,2 C
10.04.2012 09:26 10,3 C 80 % 998,5 hPa 0,0 l/m 33,1 km/h (5 Bft) S-SO 157 7,0 C 10,3 C
10.04.2012 09:31 10,3 C 79 % 998,3 hPa 0,0 l/m 16,2 km/h (3 Bft) S 180 6,8 C 10,3 C
10.04.2012 09:36 10,4 C 79 % 998,4 hPa 0,0 l/m 9,4 km/h (2 Bft) S-SW 202 6,9 C 10,4 C
10.04.2012 09:41 10,4 C 79 % 998,6 hPa 0,0 l/m 22,0 km/h (4 Bft) S-SO 157 6,9 C 10,4 C
10.04.2012 09:46 10,6 C 79 % 998,5 hPa 0,0 l/m 17,3 km/h (3 Bft) S-SW 202 7,1 C 10,6 C
10.04.2012 09:51 10,6 C 79 % 998,5 hPa 0,0 l/m 13,3 km/h (3 Bft) S-SW 202 7,1 C 10,6 C
10.04.2012 09:56 10,7 C 79 % 998,6 hPa 0,0 l/m 12,6 km/h (3 Bft) S 180 7,2 C 10,7 C
10.04.2012 10:01 10,8 C 79 % 998,3 hPa 0,0 l/m 9,0 km/h (2 Bft) S 180 7,3 C 10,8 C
10.04.2012 10:06 10,8 C 79 % 998,4 hPa 0,0 l/m 16,9 km/h (3 Bft) W-SW 247 7,3 C 10,8 C
10.04.2012 10:11 10,8 C 79 % 998,4 hPa 0,0 l/m 17,6 km/h (3 Bft) SO 135 7,3 C 10,8 C
10.04.2012 10:16 10,9 C 79 % 998,4 hPa 0,0 l/m 8,3 km/h (2 Bft) W-SW 247 7,4 C 10,9 C
10.04.2012 10:21 11,0 C 80 % 998,4 hPa 0,0 l/m 14,0 km/h (3 Bft) S 180 7,7 C 11,0 C
10.04.2012 10:26 11,3 C 80 % 998,4 hPa 0,0 l/m 16,9 km/h (3 Bft) S-SO 157 8,0 C 11,3 C
10.04.2012 10:31 11,5 C 80 % 998,6 hPa 0,0 l/m 16,6 km/h (3 Bft) S 180 8,2 C 11,5 C
10.04.2012 10:36 11,5 C 78 % 998,6 hPa 0,0 l/m 20,5 km/h (4 Bft) SO 135 7,8 C 11,5 C
10.04.2012 10:41 11,5 C 78 % 998,4 hPa 0,0 l/m 14,8 km/h (3 Bft) S-SW 202 7,8 C 11,5 C
10.04.2012 10:46 11,4 C 78 % 998,4 hPa 0,0 l/m 20,9 km/h (4 Bft) S-SO 157 7,7 C 11,4 C
10.04.2012 10:51 11,4 C 79 % 998,5 hPa 0,0 l/m 6,5 km/h (2 Bft) S-SO 157 7,9 C 11,4 C
10.04.2012 10:56 11,4 C 79 % 998,4 hPa 0,0 l/m 11,2 km/h (2 Bft) S-SO 157 7,9 C 11,4 C
10.04.2012 11:01 11,5 C 79 % 998,6 hPa 0,0 l/m 27,4 km/h (4 Bft) S 180 8,0 C 11,5 C
10.04.2012 11:06 11,6 C 78 % 998,4 hPa 0,0 l/m 11,9 km/h (2 Bft) S 180 7,9 C 11,6 C
10.04.2012 11:11 11,6 C 78 % 998,4 hPa 0,0 l/m 16,9 km/h (3 Bft) SO 135 7,9 C 11,6 C
10.04.2012 11:16 11,8 C 77 % 998,4 hPa 0,0 l/m 5,0 km/h (1 Bft) O-NO 67 7,9 C 11,8 C
10.04.2012 11:21 11,9 C 77 % 998,4 hPa 0,0 l/m 22,7 km/h (4 Bft) SO 135 8,0 C 11,9 C
10.04.2012 11:26 11,9 C 76 % 998,5 hPa 0,0 l/m 14,8 km/h (3 Bft) S-SW 202 7,8 C 11,9 C
10.04.2012 11:31 12,1 C 76 % 998,6 hPa 0,0 l/m 20,5 km/h (4 Bft) S-SW 202 8,0 C 12,1 C
10.04.2012 11:36 12,2 C 75 % 998,3 hPa 0,0 l/m 13,3 km/h (3 Bft) S 180 7,9 C 12,2 C
10.04.2012 11:41 12,3 C 75 % 998,3 hPa 0,0 l/m 24,1 km/h (4 Bft) S-SO 157 8,0 C 12,3 C
10.04.2012 11:46 12,4 C 75 % 998,3 hPa 0,0 l/m 20,9 km/h (4 Bft) S-SO 157 8,1 C 12,4 C
10.04.2012 11:51 12,6 C 74 % 998,3 hPa 0,0 l/m 10,8 km/h (2 Bft) S-SW 202 8,1 C 12,6 C
10.04.2012 11:56 12,6 C 74 % 998,2 hPa 0,0 l/m 8,6 km/h (2 Bft) SO 135 8,1 C 12,6 C
10.04.2012 12:01 12,7 C 74 % 998,1 hPa 0,0 l/m 25,9 km/h (4 Bft) S 180 8,2 C 12,7 C
10.04.2012 12:06 12,8 C 73 % 998,2 hPa 0,0 l/m 7,6 km/h (2 Bft) S-SO 157 8,1 C 12,8 C
10.04.2012 12:11 12,9 C 73 % 998,2 hPa 0,0 l/m 16,6 km/h (3 Bft) S 180 8,2 C 12,9 C
10.04.2012 12:16 12,9 C 73 % 998,2 hPa 0,0 l/m 11,9 km/h (2 Bft) SW 225 8,2 C 12,9 C
10.04.2012 12:21 12,9 C 72 % 998,2 hPa 0,0 l/m 14,8 km/h (3 Bft) SO 135 8,0 C 12,9 C
10.04.2012 12:26 13,0 C 72 % 998,2 hPa 0,0 l/m 19,4 km/h (3 Bft) S 180 8,1 C 13,0 C
10.04.2012 12:31 13,2 C 72 % 998,2 hPa 0,0 l/m 13,0 km/h (3 Bft) S-SW 202 8,3 C 13,2 C
10.04.2012 12:36 13,3 C 72 % 998,2 hPa 0,0 l/m 12,6 km/h (3 Bft) S-SO 157 8,4 C 13,3 C
10.04.2012 12:41 13,5 C 71 % 997,9 hPa 0,0 l/m 18,7 km/h (3 Bft) S-SW 202 8,3 C 13,5 C
10.04.2012 12:46 13,6 C 70 % 998,0 hPa 0,0 l/m 10,1 km/h (2 Bft) S-SO 157 8,2 C 13,6 C
10.04.2012 12:51 13,6 C 69 % 998,1 hPa 0,0 l/m 21,6 km/h (4 Bft) S 180 8,0 C 13,6 C
10.04.2012 12:56 13,5 C 69 % 998,2 hPa 0,0 l/m 5,0 km/h (1 Bft) S 180 7,9 C 13,5 C
10.04.2012 13:01 13,5 C 70 % 998,1 hPa 0,0 l/m 24,8 km/h (4 Bft) S 180 8,1 C 13,5 C
10.04.2012 13:06 13,6 C 69 % 998,2 hPa 0,0 l/m 14,4 km/h (3 Bft) S-SW 202 8,0 C 13,6 C
10.04.2012 13:11 13,6 C 69 % 998,2 hPa 0,0 l/m 16,9 km/h (3 Bft) W-SW 247 8,0 C 13,6 C
10.04.2012 13:16 13,6 C 68 % 998,2 hPa 0,0 l/m 20,5 km/h (4 Bft) S 180 7,8 C 13,6 C
10.04.2012 13:21 13,8 C 68 % 998,3 hPa 0,0 l/m 16,6 km/h (3 Bft) W-SW 247 8,0 C 13,8 C
10.04.2012 13:26 13,8 C 68 % 998,2 hPa 0,0 l/m 5,0 km/h (1 Bft) SW 225 8,0 C 13,8 C
10.04.2012 13:31 13,9 C 68 % 998,0 hPa 0,0 l/m 5,8 km/h (2 Bft) S 180 8,1 C 13,9 C
10.04.2012 13:36 14,1 C 68 % 998,1 hPa 0,0 l/m 13,0 km/h (3 Bft) S 180 8,3 C 14,1 C
10.04.2012 13:41 14,4 C 68 % 998,1 hPa 0,0 l/m 17,3 km/h (3 Bft) S-SW 202 8,6 C 14,4 C
10.04.2012 13:46 14,6 C 66 % 998,0 hPa 0,0 l/m 24,8 km/h (4 Bft) SW 225 8,3 C 14,6 C
10.04.2012 13:51 14,6 C 65 % 998,0 hPa 0,0 l/m 7,2 km/h (2 Bft) SO 135 8,1 C 14,6 C
10.04.2012 13:56 14,5 C 65 % 998,0 hPa 0,0 l/m 15,8 km/h (3 Bft) W-SW 247 8,0 C 14,5 C
10.04.2012 14:01 14,4 C 65 % 997,9 hPa 0,0 l/m 24,5 km/h (4 Bft) SW 225 7,9 C 14,4 C
10.04.2012 14:06 14,4 C 64 % 997,9 hPa 0,0 l/m 24,5 km/h (4 Bft) S-SW 202 7,7 C 14,4 C
10.04.2012 14:11 14,4 C 64 % 997,8 hPa 0,0 l/m 20,9 km/h (4 Bft) S-SW 202 7,7 C 14,4 C
10.04.2012 14:16 14,4 C 63 % 997,9 hPa 0,0 l/m 9,7 km/h (2 Bft) SW 225 7,4 C 14,4 C
10.04.2012 14:21 14,6 C 63 % 997,9 hPa 0,0 l/m 25,2 km/h (4 Bft) W-SW 247 7,6 C 14,6 C
10.04.2012 14:26 14,7 C 63 % 997,9 hPa 0,0 l/m 13,3 km/h (3 Bft) S-SW 202 7,7 C 14,7 C
10.04.2012 14:31 14,9 C 63 % 997,9 hPa 0,0 l/m 28,1 km/h (4 Bft) SW 225 7,9 C 14,9 C
10.04.2012 14:36 14,9 C 62 % 997,8 hPa 0,0 l/m 27,7 km/h (4 Bft) S-SW 202 7,7 C 14,9 C
10.04.2012 14:41 14,9 C 61 % 997,7 hPa 0,0 l/m 23,0 km/h (4 Bft) W 270 7,4 C 14,9 C
10.04.2012 14:46 14,9 C 62 % 997,8 hPa 0,0 l/m 18,0 km/h (3 Bft) S 180 7,7 C 14,9 C
10.04.2012 14:51 14,9 C 61 % 997,7 hPa 0,0 l/m 19,1 km/h (3 Bft) SW 225 7,4 C 14,9 C
10.04.2012 14:56 14,9 C 61 % 997,8 hPa 0,0 l/m 16,9 km/h (3 Bft) SW 225 7,4 C 14,9 C
10.04.2012 15:01 14,9 C 61 % 997,9 hPa 0,0 l/m 13,0 km/h (3 Bft) S 180 7,4 C 14,9 C
10.04.2012 15:06 14,9 C 61 % 997,8 hPa 0,0 l/m 14,8 km/h (3 Bft) S-SW 202 7,4 C 14,9 C
10.04.2012 15:11 14,9 C 60 % 997,6 hPa 0,0 l/m 16,6 km/h (3 Bft) S-SW 202 7,2 C 14,9 C
10.04.2012 15:16 14,9 C 60 % 997,6 hPa 0,0 l/m 14,4 km/h (3 Bft) S-SO 157 7,2 C 14,9 C
10.04.2012 15:21 14,9 C 61 % 997,6 hPa 0,0 l/m 3,6 km/h (1 Bft) W-SW 247 7,4 C 14,9 C
10.04.2012 15:26 14,9 C 61 % 997,7 hPa 0,0 l/m 9,4 km/h (2 Bft) S-SW 202 7,4 C 14,9 C
10.04.2012 15:31 14,9 C 61 % 997,7 hPa 0,0 l/m 11,9 km/h (2 Bft) S 180 7,4 C 14,9 C
10.04.2012 15:36 14,9 C 61 % 997,6 hPa 0,0 l/m 11,2 km/h (2 Bft) S 180 7,4 C 14,9 C
10.04.2012 15:41 14,9 C 61 % 997,5 hPa 0,0 l/m 11,2 km/h (2 Bft) S-SW 202 7,4 C 14,9 C
10.04.2012 15:46 14,8 C 61 % 997,6 hPa 0,0 l/m 9,0 km/h (2 Bft) S 180 7,4 C 14,8 C
10.04.2012 15:51 14,9 C 60 % 997,5 hPa 0,0 l/m 6,5 km/h (2 Bft) S-SO 157 7,2 C 14,9 C
10.04.2012 15:56 14,9 C 60 % 997,4 hPa 0,0 l/m 5,8 km/h (2 Bft) S-SW 202 7,2 C 14,9 C
10.04.2012 16:01 14,8 C 60 % 997,4 hPa 0,0 l/m 6,1 km/h (2 Bft) SO 135 7,1 C 14,8 C
10.04.2012 16:06 14,8 C 60 % 997,2 hPa 0,0 l/m 9,4 km/h (2 Bft) W 270 7,1 C 14,8 C
10.04.2012 16:11 14,9 C 61 % 997,3 hPa 0,0 l/m 9,0 km/h (2 Bft) SW 225 7,4 C 14,9 C
10.04.2012 16:16 14,9 C 61 % 997,3 hPa 0,0 l/m 7,6 km/h (2 Bft) SW 225 7,4 C 14,9 C
10.04.2012 16:21 15,1 C 61 % 997,3 hPa 0,0 l/m 5,8 km/h (2 Bft) S-SW 202 7,6 C 15,1 C
10.04.2012 16:26 15,1 C 60 % 997,5 hPa 0,0 l/m 11,2 km/h (2 Bft) SW 225 7,4 C 15,1 C
10.04.2012 16:31 15,2 C 60 % 997,3 hPa 0,0 l/m 6,5 km/h (2 Bft) S-SW 202 7,5 C 15,2 C
10.04.2012 16:36 15,1 C 60 % 997,3 hPa 0,0 l/m 5,8 km/h (2 Bft) W 270 7,4 C 15,1 C
10.04.2012 16:41 14,9 C 60 % 997,2 hPa 0,0 l/m 4,3 km/h (1 Bft) SW 225 7,2 C 14,9 C
10.04.2012 16:46 14,9 C 60 % 997,3 hPa 0,0 l/m 4,3 km/h (1 Bft) S 180 7,2 C 14,9 C
10.04.2012 16:51 14,9 C 61 % 997,3 hPa 0,0 l/m 0,0 km/h (0 Bft) S 180 7,4 C 14,9 C
10.04.2012 16:56 14,9 C 61 % 997,3 hPa 0,0 l/m 1,4 km/h (1 Bft) S-SO 157 7,4 C 14,9 C
10.04.2012 17:01 14,9 C 61 % 997,4 hPa 0,0 l/m 1,1 km/h (1 Bft) S-SO 157 7,4 C 14,9 C
10.04.2012 17:06 14,9 C 62 % 997,3 hPa 0,0 l/m 0,0 km/h (0 Bft) S 180 7,7 C 14,9 C
10.04.2012 17:11 14,9 C 62 % 997,2 hPa 0,0 l/m 0,0 km/h (0 Bft) S 180 7,7 C 14,9 C
10.04.2012 17:16 14,9 C 62 % 997,0 hPa 0,0 l/m 0,0 km/h (0 Bft) S-SW 202 7,7 C 14,9 C
10.04.2012 17:21 14,9 C 62 % 997,3 hPa 0,0 l/m 0,0 km/h (0 Bft) S 180 7,7 C 14,9 C
10.04.2012 17:26 14,8 C 63 % 997,3 hPa 0,0 l/m 0,0 km/h (0 Bft) S-SO 157 7,8 C 14,8 C
10.04.2012 17:31 14,8 C 63 % 997,3 hPa 0,0 l/m 3,2 km/h (1 Bft) S 180 7,8 C 14,8 C
10.04.2012 17:36 14,8 C 63 % 997,0 hPa 0,0 l/m 0,0 km/h (0 Bft) S-SO 157 7,8 C 14,8 C
10.04.2012 17:41 14,8 C 63 % 997,2 hPa 0,0 l/m 0,0 km/h (0 Bft) SO 135 7,8 C 14,8 C
10.04.2012 17:46 14,8 C 64 % 997,2 hPa 0,0 l/m 0,0 km/h (0 Bft) SO 135 8,1 C 14,8 C
10.04.2012 17:51 14,8 C 64 % 997,2 hPa 0,0 l/m 0,0 km/h (0 Bft) SO 135 8,1 C 14,8 C
10.04.2012 17:56 14,7 C 64 % 997,2 hPa 0,0 l/m 0,0 km/h (0 Bft) S-SO 157 8,0 C 14,7 C
10.04.2012 18:01 14,6 C 64 % 997,2 hPa 0,0 l/m 2,2 km/h (1 Bft) S-SO 157 7,9 C 14,6 C
10.04.2012 18:06 14,6 C 64 % 997,1 hPa 0,0 l/m 1,4 km/h (1 Bft) S-SO 157 7,9 C 14,6 C
10.04.2012 18:11 14,6 C 64 % 997,2 hPa 0,0 l/m 2,5 km/h (1 Bft) S 180 7,9 C 14,6 C
10.04.2012 18:16 14,6 C 64 % 997,3 hPa 0,0 l/m 0,0 km/h (0 Bft) S-SO 157 7,9 C 14,6 C
10.04.2012 18:21 14,6 C 64 % 997,4 hPa 0,0 l/m 2,9 km/h (1 Bft) S-SO 157 7,9 C 14,6 C
10.04.2012 18:26 14,5 C 64 % 997,4 hPa 0,0 l/m 0,0 km/h (0 Bft) S-SO 157 7,8 C 14,5 C
10.04.2012 18:31 14,5 C 64 % 997,5 hPa 0,0 l/m 2,9 km/h (1 Bft) SO 135 7,8 C 14,5 C
10.04.2012 18:36 14,5 C 64 % 997,5 hPa 0,0 l/m 5,8 km/h (2 Bft) S-SO 157 7,8 C 14,5 C
10.04.2012 18:41 14,5 C 64 % 997,4 hPa 0,0 l/m 3,2 km/h (1 Bft) S-SW 202 7,8 C 14,5 C
10.04.2012 18:46 14,6 C 64 % 997,3 hPa 0,0 l/m 2,2 km/h (1 Bft) S-SW 202 7,9 C 14,6 C
10.04.2012 18:51 14,6 C 64 % 997,3 hPa 0,0 l/m 1,1 km/h (1 Bft) SW 225 7,9 C 14,6 C
10.04.2012 18:56 14,8 C 64 % 997,3 hPa 0,0 l/m 0,0 km/h (0 Bft) S-SW 202 8,1 C 14,8 C
10.04.2012 19:01 14,8 C 64 % 997,2 hPa 0,0 l/m 2,5 km/h (1 Bft) S-SW 202 8,1 C 14,8 C
10.04.2012 19:06 14,9 C 64 % 997,2 hPa 0,0 l/m 0,0 km/h (0 Bft) S-SW 202 8,2 C 14,9 C
10.04.2012 19:11 14,9 C 64 % 997,2 hPa 0,0 l/m 0,0 km/h (0 Bft) S-SW 202 8,2 C 14,9 C
10.04.2012 19:16 14,8 C 63 % 997,2 hPa 0,0 l/m 0,0 km/h (0 Bft) S-SW 202 7,8 C 14,8 C
10.04.2012 19:21 14,6 C 64 % 997,3 hPa 0,0 l/m 0,0 km/h (0 Bft) S-SW 202 7,9 C 14,6 C
10.04.2012 19:26 14,5 C 64 % 997,3 hPa 0,0 l/m 0,0 km/h (0 Bft) S-SW 202 7,8 C 14,5 C
10.04.2012 19:31 14,4 C 64 % 997,3 hPa 0,0 l/m 0,0 km/h (0 Bft) W-SW 247 7,7 C 14,4 C
10.04.2012 19:36 14,3 C 64 % 997,3 hPa 0,0 l/m 0,0 km/h (0 Bft) W 270 7,6 C 14,3 C
10.04.2012 19:41 14,1 C 65 % 997,2 hPa 0,0 l/m 0,0 km/h (0 Bft) W 270 7,6 C 14,1 C
10.04.2012 19:46 13,8 C 66 % 997,2 hPa 0,0 l/m 0,0 km/h (0 Bft) W 270 7,6 C 13,8 C
10.04.2012 19:51 13,6 C 66 % 997,3 hPa 0,0 l/m 0,0 km/h (0 Bft) W 270 7,4 C 13,6 C
10.04.2012 19:56 13,4 C 66 % 997,2 hPa 0,0 l/m 0,0 km/h (0 Bft) W 270 7,2 C 13,4 C
10.04.2012 20:01 13,2 C 67 % 997,3 hPa 0,0 l/m 0,0 km/h (0 Bft) NW 315 7,2 C 13,2 C
10.04.2012 20:06 12,9 C 68 % 997,2 hPa 0,0 l/m 0,0 km/h (0 Bft) NW 315 7,1 C 12,9 C
10.04.2012 20:11 12,8 C 68 % 997,3 hPa 0,0 l/m 0,0 km/h (0 Bft) NW 315 7,0 C 12,8 C
10.04.2012 20:16 12,6 C 69 % 997,4 hPa 0,0 l/m 0,0 km/h (0 Bft) NW 315 7,1 C 12,6 C
10.04.2012 20:21 12,4 C 70 % 997,4 hPa 0,0 l/m 0,0 km/h (0 Bft) NW 315 7,1 C 12,4 C
10.04.2012 20:26 12,3 C 71 % 997,5 hPa 0,0 l/m 0,0 km/h (0 Bft) NW 315 7,2 C 12,3 C
10.04.2012 20:31 12,2 C 71 % 997,3 hPa 0,0 l/m 0,0 km/h (0 Bft) NW 315 7,1 C 12,2 C
10.04.2012 20:36 12,1 C 71 % 997,3 hPa 0,0 l/m 0,0 km/h (0 Bft) NW 315 7,0 C 12,1 C
10.04.2012 20:41 11,9 C 72 % 997,4 hPa 0,0 l/m 0,0 km/h (0 Bft) SO 135 7,0 C 11,9 C
10.04.2012 20:46 11,9 C 72 % 997,6 hPa 0,0 l/m 2,9 km/h (1 Bft) O-SO 112 7,0 C 11,9 C
10.04.2012 20:51 11,9 C 72 % 997,5 hPa 0,0 l/m 1,8 km/h (1 Bft) O-SO 112 7,0 C 11,9 C
10.04.2012 20:56 11,9 C 72 % 997,5 hPa 0,0 l/m 0,0 km/h (0 Bft) O 90 7,0 C 11,9 C
10.04.2012 21:01 11,9 C 72 % 997,5 hPa 0,0 l/m 1,4 km/h (1 Bft) O 90 7,0 C 11,9 C
10.04.2012 21:06 11,9 C 72 % 997,4 hPa 0,0 l/m 0,0 km/h (0 Bft) O 90 7,0 C 11,9 C
10.04.2012 21:11 11,8 C 72 % 997,4 hPa 0,0 l/m 1,4 km/h (1 Bft) O 90 6,9 C 11,8 C
10.04.2012 21:16 11,8 C 73 % 997,4 hPa 0,0 l/m 2,9 km/h (1 Bft) O-SO 112 7,1 C 11,8 C
10.04.2012 21:21 11,8 C 72 % 997,5 hPa 0,0 l/m 3,2 km/h (1 Bft) O-SO 112 6,9 C 11,8 C
10.04.2012 21:26 11,8 C 72 % 997,5 hPa 0,0 l/m 4,0 km/h (1 Bft) O-SO 112 6,9 C 11,8 C
10.04.2012 21:31 11,7 C 73 % 997,5 hPa 0,0 l/m 4,0 km/h (1 Bft) O 90 7,0 C 11,7 C
10.04.2012 21:36 11,5 C 73 % 997,3 hPa 0,0 l/m 0,0 km/h (0 Bft) O-SO 112 6,8 C 11,5 C
10.04.2012 21:41 11,4 C 73 % 997,2 hPa 0,0 l/m 3,6 km/h (1 Bft) O 90 6,7 C 11,4 C
10.04.2012 21:46 11,4 C 73 % 997,2 hPa 0,0 l/m 0,0 km/h (0 Bft) O-SO 112 6,7 C 11,4 C
10.04.2012 21:51 11,3 C 73 % 997,3 hPa 0,0 l/m 3,6 km/h (1 Bft) O 90 6,6 C 11,3 C
10.04.2012 21:56 11,3 C 74 % 997,2 hPa 0,0 l/m 2,5 km/h (1 Bft) O-SO 112 6,8 C 11,3 C
10.04.2012 22:01 11,2 C 74 % 997,2 hPa 0,0 l/m 2,5 km/h (1 Bft) O 90 6,7 C 11,2 C
10.04.2012 22:06 11,1 C 74 % 997,0 hPa 0,0 l/m 1,4 km/h (1 Bft) O 90 6,6 C 11,1 C
10.04.2012 22:11 11,1 C 74 % 996,9 hPa 0,0 l/m 3,2 km/h (1 Bft) O-SO 112 6,6 C 11,1 C
10.04.2012 22:16 11,1 C 74 % 997,0 hPa 0,0 l/m 2,9 km/h (1 Bft) O 90 6,6 C 11,1 C
10.04.2012 22:21 11,2 C 74 % 996,9 hPa 0,0 l/m 4,3 km/h (1 Bft) O 90 6,7 C 11,2 C
10.04.2012 22:26 11,2 C 74 % 997,0 hPa 0,0 l/m 0,0 km/h (0 Bft) O-SO 112 6,7 C 11,2 C
10.04.2012 22:31 11,3 C 74 % 996,8 hPa 0,0 l/m 6,5 km/h (2 Bft) O-SO 112 6,8 C 11,3 C
10.04.2012 22:36 11,2 C 74 % 996,8 hPa 0,0 l/m 5,0 km/h (1 Bft) O-SO 112 6,7 C 11,2 C
10.04.2012 22:41 11,0 C 74 % 996,5 hPa 0,0 l/m 3,6 km/h (1 Bft) O-NO 67 6,5 C 11,0 C
10.04.2012 22:46 10,9 C 75 % 996,5 hPa 0,0 l/m 5,8 km/h (2 Bft) O-SO 112 6,6 C 10,9 C
10.04.2012 22:51 10,9 C 75 % 996,4 hPa 0,0 l/m 8,6 km/h (2 Bft) O 90 6,6 C 10,9 C
10.04.2012 22:56 10,9 C 75 % 996,4 hPa 0,0 l/m 5,0 km/h (1 Bft) O-SO 112 6,6 C 10,9 C
10.04.2012 23:01 10,9 C 75 % 996,3 hPa 0,0 l/m 4,7 km/h (1 Bft) O 90 6,6 C 10,9 C
10.04.2012 23:06 10,8 C 75 % 996,4 hPa 0,0 l/m 6,5 km/h (2 Bft) O 90 6,5 C 10,8 C
10.04.2012 23:11 10,6 C 75 % 996,3 hPa 0,0 l/m 6,1 km/h (2 Bft) O 90 6,4 C 10,6 C
10.04.2012 23:16 10,5 C 75 % 996,6 hPa 0,0 l/m 3,6 km/h (1 Bft) O 90 6,3 C 10,5 C
10.04.2012 23:21 10,4 C 75 % 996,3 hPa 0,0 l/m 5,8 km/h (2 Bft) O 90 6,2 C 10,4 C
10.04.2012 23:26 10,4 C 76 % 996,4 hPa 0,0 l/m 3,6 km/h (1 Bft) O-SO 112 6,4 C 10,4 C
10.04.2012 23:31 10,4 C 76 % 996,4 hPa 0,0 l/m 3,6 km/h (1 Bft) O 90 6,4 C 10,4 C
10.04.2012 23:36 10,4 C 76 % 996,5 hPa 0,0 l/m 2,5 km/h (1 Bft) SO 135 6,4 C 10,4 C
10.04.2012 23:41 10,5 C 76 % 996,1 hPa 0,0 l/m 4,3 km/h (1 Bft) O-SO 112 6,5 C 10,5 C
10.04.2012 23:46 10,5 C 76 % 996,4 hPa 0,0 l/m 2,2 km/h (1 Bft) S-SO 157 6,5 C 10,5 C
10.04.2012 23:51 10,6 C 76 % 996,4 hPa 0,0 l/m 4,7 km/h (1 Bft) O-SO 112 6,5 C 10,6 C
10.04.2012 23:56 10,6 C 76 % 996,3 hPa 0,0 l/m 5,0 km/h (1 Bft) O 90 6,5 C 10,6 C
_ Min-Zeit 01:16 15:11 23:41 - 16:51 - - 00:01 00:56
Minimum _ 6,8 C 60 % 996,1 hPa - 0,0 km/h (0 Bft) - - 4,0 C 3,3 C
_ Max-Zeit 16:31 00:51 00:06 01:21 09:26 - - 13:41 16:31
Maximum _ 15,2 C 83 % 1001,6 hPa 0,5 l/m 33,1 km/h
S-SO (5 Bft)
- - 8,6 C 15,2 C
Durchschnitt _ 11,0 C 74 % 998,4 hPa #0,5 l/m 9,7 km/h (2 Bft) S-SO - 6,5 C 10,2 C
(c) by David Heller